createdAt,value
2022-08-05T00:00:50.570Z,83.15
2022-08-05T00:01:50.432Z,83.09
2022-08-05T00:02:51.611Z,83.35
2022-08-05T00:03:50.321Z,83.59
2022-08-05T00:04:55.306Z,83.39
2022-08-05T00:06:05.365Z,83.69
2022-08-05T00:06:51.764Z,84.19
2022-08-05T00:08:00.336Z,84.19
2022-08-05T00:08:51.281Z,84.13
2022-08-05T00:09:50.295Z,84.09
2022-08-05T00:10:50.340Z,83.23
2022-08-05T00:11:55.890Z,83.83
2022-08-05T00:12:56.466Z,83.73
2022-08-05T00:13:52.985Z,83.93
2022-08-05T00:14:51.892Z,84.23
2022-08-05T00:15:55.043Z,83.53
2022-08-05T00:16:52.497Z,82.93
2022-08-05T00:17:50.203Z,83.53
2022-08-05T00:18:50.212Z,83.59
2022-08-05T00:20:01.825Z,84.23
2022-08-05T00:20:51.178Z,83.83
2022-08-05T00:21:50.217Z,84.19
2022-08-05T00:22:57.453Z,84.03
2022-08-05T00:23:53.658Z,84.19
2022-08-05T00:24:55.005Z,83.89
2022-08-05T00:25:50.134Z,84.49
2022-08-05T00:26:51.954Z,84.19
2022-08-05T00:27:50.125Z,83.29
2022-08-05T00:28:50.117Z,83.29
2022-08-05T00:29:50.103Z,83.99
2022-08-05T00:30:52.036Z,84.29
2022-08-05T00:32:10.562Z,85.09
2022-08-05T00:32:51.076Z,85.23
2022-08-05T00:34:55.264Z,84.89
2022-08-05T00:35:04.654Z,85.09
2022-08-05T00:36:16.516Z,84.99
2022-08-05T00:37:10.727Z,85.58
2022-08-05T00:37:53.965Z,85.39
2022-08-05T00:38:50.024Z,85.19
2022-08-05T00:39:58.011Z,85.09
2022-08-05T00:40:53.210Z,84.99
2022-08-05T00:41:54.894Z,84.69
2022-08-05T00:42:50.991Z,84.99
2022-08-05T00:43:50.161Z,84.59
2022-08-05T00:44:49.978Z,84.09
2022-08-05T00:45:49.978Z,84.19
2022-08-05T00:46:54.139Z,85.33
2022-08-05T00:47:57.336Z,85.13
2022-08-05T00:48:51.482Z,85.33
2022-08-05T00:49:51.789Z,85.13
2022-08-05T00:50:50.004Z,85.13
2022-08-05T00:51:52.172Z,85.23
2022-08-05T00:52:49.926Z,84.23
2022-08-05T00:54:02.234Z,84.93
2022-08-05T00:54:50.902Z,85.13
2022-08-05T00:55:49.891Z,85.03
2022-08-05T00:56:51.769Z,85.33
2022-08-05T00:57:55.409Z,85.53
2022-08-05T00:58:50.863Z,86.93
2022-08-05T00:59:49.860Z,87.07
2022-08-05T01:00:49.845Z,86.87
2022-08-05T01:01:49.910Z,87.27
2022-08-05T01:02:50.205Z,87.16
2022-08-05T01:03:50.078Z,87.16
2022-08-05T01:04:50.394Z,86.87
2022-08-05T01:05:49.804Z,86.97
2022-08-05T01:06:51.744Z,87.27
2022-08-05T01:08:29.790Z,87.51
2022-08-05T01:08:50.773Z,87.30
2022-08-05T01:09:55.672Z,87.41
2022-08-05T01:10:52.278Z,87.61
2022-08-05T01:11:49.759Z,87.91
2022-08-05T01:13:05.366Z,88.31
2022-08-05T01:13:58.494Z,88.10
2022-08-05T01:14:50.736Z,87.51
2022-08-05T01:15:49.723Z,87.41
2022-08-05T01:16:49.716Z,87.51
2022-08-05T01:17:53.731Z,87.51
2022-08-05T01:18:56.200Z,87.37
2022-08-05T01:20:01.614Z,87.91
2022-08-05T01:20:50.715Z,87.30
2022-08-05T01:21:50.696Z,88.21
2022-08-05T01:22:49.730Z,88.10
2022-08-05T01:23:53.139Z,87.71
2022-08-05T01:24:49.644Z,88.51
2022-08-05T01:25:50.250Z,88.10
2022-08-05T01:26:49.631Z,88.21
2022-08-05T01:27:55.349Z,87.95
2022-08-05T01:28:50.621Z,87.71
2022-08-05T01:29:49.700Z,88.05
2022-08-05T01:30:53.905Z,87.91
2022-08-05T01:31:50.622Z,87.51
2022-08-05T01:32:49.589Z,87.71
2022-08-05T01:33:53.457Z,88.15
2022-08-05T01:34:49.671Z,87.91
2022-08-05T01:35:51.805Z,87.71
2022-08-05T01:36:49.589Z,88.40
2022-08-05T01:37:49.545Z,88.51
2022-08-05T01:38:49.871Z,88.60
2022-08-05T01:39:50.599Z,88.25
2022-08-05T01:40:49.516Z,88.35
2022-08-05T01:41:49.537Z,88.51
2022-08-05T01:42:49.499Z,88.45
2022-08-05T01:43:49.490Z,88.90
2022-08-05T01:44:54.253Z,88.31
2022-08-05T01:45:56.416Z,88.01
2022-08-05T01:46:50.505Z,88.21
2022-08-05T01:47:49.458Z,87.91
2022-08-05T01:48:50.453Z,87.76
2022-08-05T01:50:01.335Z,87.57
2022-08-05T01:50:51.335Z,87.12
2022-08-05T01:51:51.740Z,87.23
2022-08-05T01:52:49.704Z,87.12
2022-08-05T01:53:57.742Z,86.64
2022-08-05T01:54:52.842Z,86.54
2022-08-05T01:55:49.396Z,85.21
2022-08-05T01:58:11.967Z,85.27
2022-08-05T01:58:12.246Z,85.16
2022-08-05T01:58:50.831Z,85.57
2022-08-05T01:59:50.365Z,85.66
2022-08-05T02:00:49.348Z,85.96
2022-08-05T02:01:49.429Z,86.76
2022-08-05T02:02:54.293Z,86.36
2022-08-05T02:03:50.324Z,85.96
2022-08-05T02:04:49.659Z,86.72
2022-08-05T02:05:49.318Z,85.86
2022-08-05T02:06:49.326Z,86.56
2022-08-05T02:07:59.834Z,86.66
2022-08-05T02:08:58.164Z,87.35
2022-08-05T02:09:50.271Z,86.96
2022-08-05T02:10:49.279Z,87.26
2022-08-05T02:11:52.477Z,87.26
2022-08-05T02:12:50.980Z,87.16
2022-08-05T02:13:53.648Z,87.16
2022-08-05T02:14:49.240Z,87.70
2022-08-05T02:15:49.230Z,87.55
2022-08-05T02:16:52.313Z,87.16
2022-08-05T02:18:33.297Z,87.76
2022-08-05T02:18:50.197Z,87.70
2022-08-05T02:19:49.197Z,87.95
2022-08-05T02:20:49.343Z,88.15
2022-08-05T02:21:49.373Z,87.76
2022-08-05T02:22:49.164Z,88.10
2022-08-05T02:23:49.158Z,88.15
2022-08-05T02:24:51.328Z,87.90
2022-08-05T02:25:50.558Z,88.70
2022-08-05T02:26:54.567Z,88.55
2022-08-05T02:27:59.050Z,88.55
2022-08-05T02:28:50.127Z,88.79
2022-08-05T02:29:59.938Z,88.40
2022-08-05T02:30:51.640Z,89.29
2022-08-05T02:31:49.098Z,88.70
2022-08-05T02:32:49.110Z,88.70
2022-08-05T02:33:49.074Z,90.09
2022-08-05T02:34:54.516Z,92.43
2022-08-05T02:35:58.927Z,94.46
2022-08-05T02:36:50.053Z,94.71
2022-08-05T02:37:54.176Z,96.95
2022-08-05T02:38:52.963Z,98.10
2022-08-05T02:39:51.524Z,98.10
2022-08-05T02:40:49.025Z,98.84
2022-08-05T02:41:57.985Z,99.04
2022-08-05T02:42:52.709Z,99.24
2022-08-05T02:44:02.919Z,99.99
2022-08-05T02:44:49.981Z,99.99
2022-08-05T02:45:52.573Z,99.99
2022-08-05T02:46:53.817Z,99.99
2022-08-05T02:48:07.428Z,99.99
2022-08-05T02:48:49.963Z,99.99
2022-08-05T02:49:48.947Z,99.99
2022-08-05T02:50:48.932Z,99.99
2022-08-05T02:52:04.421Z,99.99
2022-08-05T02:52:49.931Z,99.99
2022-08-05T02:53:48.913Z,99.99
2022-08-05T02:54:51.160Z,99.99
2022-08-05T02:55:54.651Z,99.99
2022-08-05T02:56:49.923Z,99.99
2022-08-05T02:58:09.654Z,99.99
2022-08-05T02:58:51.239Z,99.99
2022-08-05T02:59:51.940Z,99.99
2022-08-05T03:00:48.857Z,99.99
2022-08-05T03:01:48.946Z,99.99
2022-08-05T03:02:48.842Z,99.99
2022-08-05T03:04:02.157Z,99.99
2022-08-05T03:04:53.241Z,99.99
2022-08-05T03:06:57.024Z,99.99
2022-08-05T03:06:59.480Z,99.99
2022-08-05T03:08:01.396Z,99.99
2022-08-05T03:08:52.047Z,99.99
2022-08-05T03:09:51.484Z,99.99
2022-08-05T03:11:53.129Z,99.99
2022-08-05T03:11:56.273Z,99.99
2022-08-05T03:12:51.813Z,99.99
2022-08-05T03:13:51.896Z,99.99
2022-08-05T03:14:50.732Z,99.99
2022-08-05T03:15:48.723Z,99.99
2022-08-05T03:16:48.751Z,99.99
2022-08-05T03:17:48.709Z,99.99
2022-08-05T03:18:49.697Z,99.99
2022-08-05T03:19:48.693Z,99.99
2022-08-05T03:20:49.073Z,99.99
2022-08-05T03:21:50.024Z,99.99
2022-08-05T03:22:50.503Z,99.99
2022-08-05T03:23:48.662Z,99.99
2022-08-05T03:24:51.099Z,99.99
2022-08-05T03:26:05.045Z,99.99
2022-08-05T03:26:49.661Z,99.99
2022-08-05T03:28:00.231Z,99.99
2022-08-05T03:28:49.618Z,99.99
2022-08-05T03:30:07.416Z,99.99
2022-08-05T03:30:49.613Z,99.99
2022-08-05T03:31:57.262Z,99.99
2022-08-05T03:32:49.591Z,99.99
2022-08-05T03:33:52.978Z,99.99
2022-08-05T03:34:50.996Z,99.99
2022-08-05T03:35:48.567Z,99.99
2022-08-05T03:36:48.601Z,99.99
2022-08-05T03:37:48.546Z,99.99
2022-08-05T03:38:53.258Z,99.99
2022-08-05T03:39:59.080Z,99.99
2022-08-05T03:40:49.591Z,99.99
2022-08-05T03:41:48.546Z,99.99
2022-08-05T03:42:52.203Z,99.99
2022-08-05T03:44:08.815Z,99.99
2022-08-05T03:44:49.483Z,99.99
2022-08-05T03:45:57.216Z,99.99
2022-08-05T03:46:49.495Z,99.99
2022-08-05T03:47:49.340Z,99.99
2022-08-05T03:48:48.516Z,99.99
2022-08-05T03:49:51.229Z,99.99
2022-08-05T03:50:48.437Z,99.99
2022-08-05T03:52:48.404Z,99.99
2022-08-05T03:55:34.061Z,99.99
2022-08-05T03:55:52.303Z,99.99
2022-08-05T03:55:53.871Z,99.99
2022-08-05T03:56:06.028Z,99.99
2022-08-05T03:56:50.095Z,99.99
2022-08-05T03:57:48.713Z,99.99
2022-08-05T03:58:48.382Z,99.99
2022-08-05T03:59:55.430Z,99.99
2022-08-05T04:00:51.539Z,99.99
2022-08-05T04:01:48.512Z,99.99
2022-08-05T04:02:57.975Z,99.99
2022-08-05T04:04:09.196Z,99.99
2022-08-05T04:04:49.317Z,99.99
2022-08-05T04:05:48.311Z,99.99
2022-08-05T04:06:51.404Z,99.99
2022-08-05T04:07:58.653Z,99.99
2022-08-05T04:08:49.290Z,99.99
2022-08-05T04:09:53.788Z,99.99
2022-08-05T04:10:49.271Z,99.99
2022-08-05T04:11:52.466Z,99.99
2022-08-05T04:12:48.286Z,99.99
2022-08-05T04:13:50.610Z,99.99
2022-08-05T04:14:49.236Z,99.99
2022-08-05T04:15:53.019Z,99.99
2022-08-05T04:16:49.217Z,99.99
2022-08-05T04:17:56.299Z,99.99
2022-08-05T04:18:54.509Z,99.99
2022-08-05T04:19:54.506Z,99.99
2022-08-05T04:20:49.180Z,99.99
2022-08-05T04:22:09.258Z,99.99
2022-08-05T04:22:49.197Z,99.99
2022-08-05T04:24:05.256Z,99.99
2022-08-05T04:24:52.707Z,99.99
2022-08-05T04:26:00.243Z,99.99
2022-08-05T04:26:49.140Z,99.99
2022-08-05T04:27:58.220Z,99.99
2022-08-05T04:28:51.349Z,99.99
2022-08-05T04:29:48.453Z,99.99
2022-08-05T04:30:48.174Z,99.99
2022-08-05T04:31:48.445Z,99.99
2022-08-05T04:32:48.118Z,99.99
2022-08-05T04:34:17.269Z,99.99
2022-08-05T04:34:49.066Z,99.99
2022-08-05T04:36:09.430Z,99.99
2022-08-05T04:36:50.216Z,99.99
2022-08-05T04:38:02.305Z,99.99
2022-08-05T04:38:51.118Z,99.99
2022-08-05T04:39:52.955Z,99.99
2022-08-05T04:40:50.773Z,99.99
2022-08-05T04:41:48.448Z,99.99
2022-08-05T04:42:48.035Z,99.99
2022-08-05T04:43:52.038Z,99.99
2022-08-05T04:44:48.979Z,99.99
2022-08-05T04:45:55.033Z,99.99
2022-08-05T04:46:48.965Z,99.99
2022-08-05T04:47:47.991Z,99.99
2022-08-05T04:48:47.944Z,99.99
2022-08-05T04:50:01.645Z,99.99
2022-08-05T04:51:03.264Z,99.99
2022-08-05T04:51:48.919Z,99.99
2022-08-05T04:52:48.942Z,99.99
2022-08-05T04:53:47.913Z,99.99
2022-08-05T04:54:49.449Z,99.99
2022-08-05T04:56:14.702Z,99.99
2022-08-05T04:56:48.885Z,99.99
2022-08-05T04:57:54.201Z,99.99
2022-08-05T04:58:48.865Z,99.99
2022-08-05T04:59:48.039Z,99.99
2022-08-05T05:00:50.851Z,99.99
2022-08-05T05:02:07.118Z,99.99
2022-08-05T05:02:48.929Z,99.99
2022-08-05T05:03:47.830Z,99.99
2022-08-05T05:04:50.505Z,99.99
2022-08-05T05:06:36.507Z,99.99
2022-08-05T05:06:49.201Z,99.99
2022-08-05T05:07:52.992Z,99.99
2022-08-05T05:08:50.189Z,99.99
2022-08-05T05:09:47.779Z,99.99
2022-08-05T05:10:55.920Z,99.99
2022-08-05T05:11:54.025Z,99.99
2022-08-05T05:12:48.773Z,99.99
2022-08-05T05:13:47.747Z,99.99
2022-08-05T05:14:49.385Z,99.99
2022-08-05T05:15:59.511Z,99.99
2022-08-05T05:16:48.714Z,99.99
2022-08-05T05:17:55.887Z,99.99
2022-08-05T05:19:16.430Z,99.99
2022-08-05T05:19:49.689Z,99.99
2022-08-05T05:20:47.681Z,99.99
2022-08-05T05:21:47.673Z,99.99
2022-08-05T05:22:47.669Z,99.99
2022-08-05T05:24:03.734Z,99.99
2022-08-05T05:24:58.035Z,99.99
2022-08-05T05:25:48.648Z,99.99
2022-08-05T05:26:47.976Z,99.99
2022-08-05T05:27:53.631Z,99.99
2022-08-05T05:28:48.647Z,99.99
2022-08-05T05:30:04.339Z,99.99
2022-08-05T05:30:49.569Z,99.99
2022-08-05T05:31:48.653Z,99.99
2022-08-05T05:32:47.597Z,99.99
2022-08-05T05:33:58.900Z,99.99
2022-08-05T05:34:48.566Z,99.99
2022-08-05T05:35:48.017Z,99.99
2022-08-05T05:36:47.559Z,99.99
2022-08-05T05:38:01.396Z,99.99
2022-08-05T05:38:48.569Z,99.99
2022-08-05T05:39:47.591Z,99.99
2022-08-05T05:40:51.205Z,99.99
2022-08-05T05:41:54.322Z,99.99
2022-08-05T05:42:48.505Z,99.99
2022-08-05T05:43:56.791Z,99.99
2022-08-05T05:44:48.483Z,99.99
2022-08-05T05:45:48.228Z,99.99
2022-08-05T05:46:47.779Z,99.99
2022-08-05T05:48:06.593Z,99.99
2022-08-05T05:48:49.012Z,99.99
2022-08-05T05:49:47.454Z,99.99
2022-08-05T05:50:48.435Z,99.99
2022-08-05T05:51:50.632Z,99.99
2022-08-05T05:52:47.425Z,99.99
2022-08-05T05:53:57.635Z,99.99
2022-08-05T05:54:50.224Z,99.99
2022-08-05T05:55:52.111Z,99.99
2022-08-05T05:56:48.392Z,99.99
2022-08-05T05:57:52.902Z,99.99
2022-08-05T05:58:48.398Z,99.99
2022-08-05T05:59:47.358Z,99.99
2022-08-05T06:00:47.353Z,99.99
2022-08-05T06:01:57.831Z,99.99
2022-08-05T06:02:48.347Z,99.99
2022-08-05T06:04:01.395Z,99.99
2022-08-05T06:04:49.343Z,99.99
2022-08-05T06:05:54.149Z,99.99
2022-08-05T06:06:49.047Z,99.99
2022-08-05T06:07:57.798Z,99.99
2022-08-05T06:08:49.395Z,99.99
2022-08-05T06:09:59.874Z,99.99
2022-08-05T06:10:49.190Z,99.99
2022-08-05T06:12:00.976Z,99.99
2022-08-05T06:12:48.249Z,99.99
2022-08-05T06:13:53.877Z,99.99
2022-08-05T06:14:48.236Z,99.99
2022-08-05T06:16:30.333Z,99.99
2022-08-05T06:16:48.213Z,99.99
2022-08-05T06:17:53.586Z,99.99
2022-08-05T06:18:48.240Z,99.99
2022-08-05T06:19:56.988Z,99.99
2022-08-05T06:20:48.189Z,99.99
2022-08-05T06:21:49.756Z,99.99
2022-08-05T06:22:48.171Z,99.99
2022-08-05T06:23:47.191Z,99.99
2022-08-05T06:24:48.158Z,99.99
2022-08-05T06:26:12.237Z,99.99
2022-08-05T06:26:51.571Z,99.99
2022-08-05T06:28:11.762Z,99.99
2022-08-05T06:28:48.148Z,99.99
2022-08-05T06:30:04.179Z,99.99
2022-08-05T06:30:49.189Z,99.99
2022-08-05T06:31:47.106Z,99.99
2022-08-05T06:32:47.100Z,99.99
2022-08-05T06:34:07.117Z,99.99
2022-08-05T06:34:48.074Z,99.99
2022-08-05T06:36:07.089Z,99.99
2022-08-05T06:36:57.702Z,99.99
2022-08-05T06:37:57.450Z,99.99
2022-08-05T06:38:48.068Z,99.99
2022-08-05T06:39:47.070Z,99.99
2022-08-05T06:40:47.022Z,99.99
2022-08-05T06:41:47.016Z,99.99
2022-08-05T06:42:47.009Z,99.99
2022-08-05T06:43:58.550Z,99.99
2022-08-05T06:44:49.291Z,99.99
2022-08-05T06:46:06.528Z,99.99
2022-08-05T06:46:47.973Z,99.99
2022-08-05T06:48:37.316Z,99.99
2022-08-05T06:48:55.503Z,99.99
2022-08-05T06:50:01.354Z,99.99
2022-08-05T06:50:47.934Z,99.99
2022-08-05T06:51:46.935Z,96.94
2022-08-05T06:52:58.617Z,93.43
2022-08-05T06:53:53.747Z,89.28
2022-08-05T06:54:52.051Z,88.44
2022-08-05T06:55:47.904Z,88.85
2022-08-05T06:56:54.905Z,88.65
2022-08-05T06:58:03.305Z,85.53
2022-08-05T06:58:47.865Z,86.85
2022-08-05T06:59:48.537Z,87.95
2022-08-05T07:00:47.867Z,89.17
2022-08-05T07:01:46.878Z,89.12
2022-08-05T07:02:47.840Z,91.94
2022-08-05T07:03:47.826Z,89.94
2022-08-05T07:04:46.858Z,90.38
2022-08-05T07:05:46.812Z,92.85
2022-08-05T07:06:46.805Z,93.79
2022-08-05T07:07:46.797Z,93.64
2022-08-05T07:08:47.187Z,97.03
2022-08-05T07:09:46.810Z,94.64
2022-08-05T07:10:52.586Z,94.54
2022-08-05T07:11:51.421Z,94.56
2022-08-05T07:12:49.133Z,91.19
2022-08-05T07:13:57.535Z,88.98
2022-08-05T07:14:47.763Z,88.09
2022-08-05T07:16:01.995Z,85.68
2022-08-05T07:17:58.981Z,85.60
2022-08-05T07:18:09.381Z,81.71
2022-08-05T07:18:48.026Z,81.41
2022-08-05T07:20:48.689Z,81.35
2022-08-05T07:22:00.886Z,80.85
2022-08-05T07:22:47.944Z,83.31
2022-08-05T07:23:49.179Z,82.56
2022-08-05T07:24:52.470Z,83.25
2022-08-05T07:25:55.016Z,84.32
2022-08-05T07:26:48.637Z,84.32
2022-08-05T07:27:58.799Z,84.91
2022-08-05T07:28:47.620Z,85.65
2022-08-05T07:30:22.802Z,86.30
2022-08-05T07:30:50.269Z,85.80
2022-08-05T07:31:54.715Z,85.02
2022-08-05T07:32:50.930Z,86.00
2022-08-05T07:33:47.577Z,86.15
2022-08-05T07:34:46.641Z,86.78
2022-08-05T07:36:04.783Z,86.98
2022-08-05T07:36:47.557Z,86.43
2022-08-05T07:37:47.317Z,87.56
2022-08-05T07:38:46.550Z,88.79
2022-08-05T07:40:26.305Z,88.79
2022-08-05T07:40:47.575Z,88.79
2022-08-05T07:42:08.032Z,88.70
2022-08-05T07:42:47.513Z,88.89
2022-08-05T07:43:46.504Z,89.59
2022-08-05T07:44:46.529Z,89.49
2022-08-05T07:45:57.395Z,88.75
2022-08-05T07:46:48.390Z,88.67
2022-08-05T07:47:46.474Z,86.80
2022-08-05T07:49:01.797Z,85.07
2022-08-05T07:49:54.678Z,84.50
2022-08-05T07:50:47.444Z,83.61
2022-08-05T07:51:53.877Z,83.31
2022-08-05T07:52:47.420Z,83.15
2022-08-05T07:53:50.507Z,83.69
2022-08-05T07:54:49.126Z,85.51
2022-08-05T07:56:06.453Z,85.05
2022-08-05T07:57:01.827Z,86.82
2022-08-05T07:57:57.509Z,86.66
2022-08-05T07:58:54.776Z,86.77
2022-08-05T07:59:49.007Z,86.77
2022-08-05T08:00:46.405Z,88.45
2022-08-05T08:01:52.292Z,88.30
2022-08-05T08:03:15.420Z,89.49
2022-08-05T08:03:47.372Z,88.79
2022-08-05T08:04:46.367Z,88.79
2022-08-05T08:05:49.811Z,89.79
2022-08-05T08:06:47.312Z,89.19
2022-08-05T08:07:58.863Z,90.72
2022-08-05T08:08:47.307Z,90.72
2022-08-05T08:09:46.318Z,90.27
2022-08-05T08:10:48.693Z,90.17
2022-08-05T08:11:49.467Z,91.81
2022-08-05T08:12:48.681Z,92.90
2022-08-05T08:14:00.892Z,91.91
2022-08-05T08:14:47.292Z,92.50
2022-08-05T08:16:49.761Z,92.46
2022-08-05T08:16:51.452Z,90.77
2022-08-05T08:17:52.489Z,89.33
2022-08-05T08:18:49.913Z,89.29
2022-08-05T08:20:43.642Z,88.21
2022-08-05T08:21:03.001Z,87.22
2022-08-05T08:21:47.186Z,88.11
2022-08-05T08:22:46.176Z,87.22
2022-08-05T08:24:01.768Z,87.22
2022-08-05T08:24:51.359Z,87.32
2022-08-05T08:26:00.457Z,88.27
2022-08-05T08:26:47.143Z,87.48
2022-08-05T08:27:47.771Z,88.26
2022-08-05T08:28:58.928Z,88.10
2022-08-05T08:30:05.897Z,88.55
2022-08-05T08:30:47.855Z,89.15
2022-08-05T08:31:46.111Z,87.12
2022-08-05T08:32:46.102Z,87.12
2022-08-05T08:33:46.091Z,87.56
2022-08-05T08:34:47.138Z,88.20
2022-08-05T08:35:53.112Z,89.09
2022-08-05T08:36:52.618Z,88.06
2022-08-05T08:37:47.066Z,88.15
2022-08-05T08:38:53.254Z,88.11
2022-08-05T08:39:49.550Z,88.45
2022-08-05T08:40:51.548Z,88.51
2022-08-05T08:41:51.737Z,88.11
2022-08-05T08:42:52.377Z,87.38
2022-08-05T08:45:16.542Z,87.77
2022-08-05T08:45:22.763Z,86.98
2022-08-05T08:45:46.988Z,86.94
2022-08-05T08:46:45.983Z,87.04
2022-08-05T08:48:05.917Z,85.85
2022-08-05T08:49:06.238Z,86.34
2022-08-05T08:50:06.103Z,86.49
2022-08-05T08:51:03.411Z,86.88
2022-08-05T08:52:05.887Z,86.78
2022-08-05T08:52:51.387Z,86.05
2022-08-05T08:53:46.019Z,86.20
2022-08-05T08:54:46.045Z,86.40
2022-08-05T08:56:03.605Z,86.20
2022-08-05T08:56:47.632Z,85.11
2022-08-05T08:57:57.863Z,84.72
2022-08-05T08:58:48.705Z,82.56
2022-08-05T08:59:47.171Z,81.25
2022-08-05T09:00:45.986Z,79.33
2022-08-05T09:01:45.862Z,79.17
2022-08-05T09:02:46.861Z,77.12
2022-08-05T09:03:45.851Z,75.18
2022-08-05T09:04:58.250Z,74.77
2022-08-05T09:06:08.603Z,75.53
2022-08-05T09:06:46.815Z,76.18
2022-08-05T09:07:57.506Z,74.69
2022-08-05T09:08:46.830Z,74.07
2022-08-05T09:09:45.830Z,71.38
2022-08-05T09:10:46.734Z,75.03
2022-08-05T09:11:52.860Z,75.30
2022-08-05T09:12:51.056Z,77.11
2022-08-05T09:14:00.803Z,76.56
2022-08-05T09:14:57.153Z,74.44
2022-08-05T09:15:46.753Z,76.22
2022-08-05T09:16:49.026Z,75.10
2022-08-05T09:17:49.565Z,75.26
2022-08-05T09:18:45.729Z,74.87
2022-08-05T09:20:01.420Z,74.80
2022-08-05T09:20:46.716Z,75.18
2022-08-05T09:22:21.999Z,74.58
2022-08-05T09:22:51.790Z,76.89
2022-08-05T09:23:46.696Z,76.82
2022-08-05T09:24:45.730Z,78.25
2022-08-05T09:26:03.069Z,78.74
2022-08-05T09:26:46.674Z,79.53
2022-08-05T09:28:04.890Z,77.39
2022-08-05T09:28:46.665Z,79.49
2022-08-05T09:29:47.935Z,81.07
2022-08-05T09:30:45.646Z,81.37
2022-08-05T09:32:41.483Z,80.77
2022-08-05T09:32:46.988Z,81.86
2022-08-05T09:33:45.620Z,80.63
2022-08-05T09:34:45.649Z,81.76
2022-08-05T09:35:45.614Z,80.20
2022-08-05T09:36:56.173Z,79.67
2022-08-05T09:38:16.459Z,79.04
2022-08-05T09:38:46.581Z,78.74
2022-08-05T09:39:55.889Z,78.50
2022-08-05T09:40:52.501Z,75.64
2022-08-05T09:41:46.574Z,76.89
2022-08-05T09:42:48.404Z,76.73
2022-08-05T09:43:45.549Z,77.46
2022-08-05T09:44:45.533Z,78.38
2022-08-05T09:46:06.857Z,77.83
2022-08-05T09:46:51.711Z,79.21
2022-08-05T09:47:55.588Z,77.56
2022-08-05T09:49:06.521Z,77.03
2022-08-05T09:50:01.281Z,75.63
2022-08-05T09:50:46.510Z,74.65
2022-08-05T09:51:49.677Z,75.01
2022-08-05T09:52:45.472Z,75.47
2022-08-05T09:53:54.805Z,75.18
2022-08-05T09:54:46.456Z,76.75
2022-08-05T09:55:57.261Z,74.82
2022-08-05T09:56:52.320Z,75.15
2022-08-05T09:57:46.427Z,76.14
2022-08-05T09:58:45.425Z,76.86
2022-08-05T09:59:45.415Z,77.52
2022-08-05T10:00:45.439Z,77.62
2022-08-05T10:01:45.765Z,77.59
2022-08-05T10:02:45.442Z,77.89
2022-08-05T10:03:58.936Z,77.69
2022-08-05T10:04:46.378Z,78.52
2022-08-05T10:05:45.397Z,79.21
2022-08-05T10:06:49.808Z,78.19
2022-08-05T10:08:36.482Z,78.09
2022-08-05T10:08:53.765Z,77.69
2022-08-05T10:09:46.333Z,76.82
2022-08-05T10:10:48.269Z,75.87
2022-08-05T10:11:45.468Z,76.53
2022-08-05T10:12:49.716Z,77.75
2022-08-05T10:13:48.247Z,78.21
2022-08-05T10:14:45.296Z,78.25
2022-08-05T10:15:45.319Z,79.27
2022-08-05T10:16:52.857Z,78.25
2022-08-05T10:17:56.846Z,77.26
2022-08-05T10:18:48.213Z,77.12
2022-08-05T10:20:04.503Z,76.00
2022-08-05T10:20:48.341Z,75.31
2022-08-05T10:21:45.278Z,75.81
2022-08-05T10:22:50.957Z,76.73
2022-08-05T10:23:55.393Z,77.52
2022-08-05T10:24:46.221Z,77.09
2022-08-05T10:25:45.240Z,75.78
2022-08-05T10:26:51.459Z,77.26
2022-08-05T10:28:13.080Z,77.26
2022-08-05T10:28:46.590Z,76.76
2022-08-05T10:30:06.719Z,77.14
2022-08-05T10:32:50.750Z,78.06
2022-08-05T10:32:52.647Z,79.09
2022-08-05T10:32:54.860Z,80.04
2022-08-05T10:33:46.160Z,79.39
2022-08-05T10:34:46.177Z,80.24
2022-08-05T10:35:48.439Z,80.30
2022-08-05T10:36:46.121Z,79.85
2022-08-05T10:37:45.311Z,79.31
2022-08-05T10:38:45.162Z,77.36
2022-08-05T10:40:03.946Z,75.18
2022-08-05T10:40:46.140Z,74.78
2022-08-05T10:41:47.159Z,73.07
2022-08-05T10:42:45.080Z,71.81
2022-08-05T10:43:45.076Z,70.79
2022-08-05T10:44:45.087Z,69.54
2022-08-05T10:45:45.067Z,69.74
2022-08-05T10:46:45.047Z,69.84
2022-08-05T10:47:56.103Z,68.40
2022-08-05T10:48:58.063Z,67.65
2022-08-05T10:49:48.803Z,67.94
2022-08-05T10:50:45.025Z,67.25
2022-08-05T10:51:53.168Z,68.01
2022-08-05T10:52:49.548Z,68.33
2022-08-05T10:53:45.302Z,67.48
2022-08-05T10:54:47.098Z,69.06
2022-08-05T10:56:05.404Z,69.22
2022-08-05T10:56:45.961Z,69.25
2022-08-05T10:57:44.958Z,68.70
2022-08-05T10:58:48.705Z,70.01
2022-08-05T11:00:03.101Z,69.19
2022-08-05T11:00:45.965Z,68.37
2022-08-05T11:01:54.899Z,68.01
2022-08-05T11:02:50.503Z,68.17
2022-08-05T11:03:45.981Z,67.87
2022-08-05T11:04:44.909Z,67.22
2022-08-05T11:05:44.923Z,68.70
2022-08-05T11:06:44.889Z,68.76
2022-08-05T11:08:01.760Z,68.40
2022-08-05T11:08:45.873Z,67.84
2022-08-05T11:09:46.130Z,67.08
2022-08-05T11:10:50.208Z,67.02
2022-08-05T11:11:52.860Z,66.24
2022-08-05T11:12:54.199Z,67.91
2022-08-05T11:13:57.587Z,66.33
2022-08-05T11:15:19.427Z,65.81
2022-08-05T11:16:00.778Z,65.94
2022-08-05T11:16:56.095Z,66.33
2022-08-05T11:18:09.828Z,66.14
2022-08-05T11:18:46.958Z,66.10
2022-08-05T11:20:10.251Z,65.97
2022-08-05T11:20:45.815Z,66.72
2022-08-05T11:21:48.851Z,66.24
2022-08-05T11:22:44.762Z,66.86
2022-08-05T11:24:04.102Z,67.61
2022-08-05T11:24:50.572Z,66.10
2022-08-05T11:26:05.499Z,66.10
2022-08-05T11:26:49.772Z,67.87
2022-08-05T11:27:51.784Z,69.32
2022-08-05T11:28:45.728Z,67.84
2022-08-05T11:29:44.718Z,68.04
2022-08-05T11:30:44.734Z,68.56
2022-08-05T11:31:57.686Z,68.46
2022-08-05T11:32:47.794Z,69.25
2022-08-05T11:33:47.964Z,69.62
2022-08-05T11:34:51.920Z,68.73
2022-08-05T11:36:07.615Z,68.60
2022-08-05T11:36:45.659Z,69.02
2022-08-05T11:38:29.278Z,69.91
2022-08-05T11:38:51.235Z,70.43
2022-08-05T11:39:48.003Z,68.01
2022-08-05T11:40:44.628Z,69.48
2022-08-05T11:42:01.264Z,69.48
2022-08-05T11:42:45.612Z,68.10
2022-08-05T11:44:04.787Z,67.51
2022-08-05T11:44:54.027Z,67.97
2022-08-05T11:46:27.214Z,68.17
2022-08-05T11:46:58.451Z,68.27
2022-08-05T11:47:48.961Z,68.43
2022-08-05T11:48:44.565Z,68.93
2022-08-05T11:49:49.542Z,69.81
2022-08-05T11:50:45.550Z,68.01
2022-08-05T11:51:49.735Z,67.51
2022-08-05T11:52:46.157Z,66.63
2022-08-05T11:53:44.524Z,66.99
2022-08-05T11:54:48.375Z,66.30
2022-08-05T11:55:45.506Z,66.10
2022-08-05T11:56:44.532Z,67.41
2022-08-05T11:58:09.811Z,66.79
2022-08-05T11:58:52.830Z,67.81
2022-08-05T11:59:49.686Z,68.01
2022-08-05T12:00:46.981Z,67.77
2022-08-05T12:01:45.480Z,67.18
2022-08-05T12:02:45.480Z,68.07
2022-08-05T12:03:44.447Z,67.84
2022-08-05T12:04:45.437Z,68.13
2022-08-05T12:05:45.435Z,67.48
2022-08-05T12:06:48.925Z,68.37
2022-08-05T12:08:03.577Z,68.43
2022-08-05T12:08:49.926Z,66.76
2022-08-05T12:09:53.299Z,67.35
2022-08-05T12:10:46.534Z,67.87
2022-08-05T12:11:44.414Z,69.32
2022-08-05T12:12:46.647Z,69.12
2022-08-05T12:13:49.084Z,69.06
2022-08-05T12:14:47.281Z,68.56
2022-08-05T12:15:44.357Z,69.29
2022-08-05T12:16:45.378Z,69.06
2022-08-05T12:18:02.533Z,69.45
2022-08-05T12:18:48.650Z,69.35
2022-08-05T12:20:16.963Z,68.76
2022-08-05T12:20:45.308Z,69.71
2022-08-05T12:21:44.337Z,69.12
2022-08-05T12:22:46.126Z,70.04
2022-08-05T12:23:44.289Z,70.61
2022-08-05T12:24:49.466Z,69.62
2022-08-05T12:25:45.270Z,69.85
2022-08-05T12:26:44.519Z,71.23
2022-08-05T12:27:53.191Z,70.77
2022-08-05T12:28:45.253Z,71.76
2022-08-05T12:29:44.245Z,71.07
2022-08-05T12:30:45.829Z,71.40
2022-08-05T12:31:49.960Z,71.89
2022-08-05T12:32:46.225Z,71.89
2022-08-05T12:33:44.214Z,71.89
2022-08-05T12:34:44.212Z,71.70
2022-08-05T12:35:44.196Z,72.98
2022-08-05T12:36:44.286Z,72.65
2022-08-05T12:37:44.191Z,72.45
2022-08-05T12:38:44.184Z,73.64
2022-08-05T12:39:44.237Z,73.24
2022-08-05T12:40:44.356Z,72.55
2022-08-05T12:41:44.181Z,73.05
2022-08-05T12:42:44.150Z,72.52
2022-08-05T12:43:44.135Z,73.21
2022-08-05T12:44:44.134Z,72.72
2022-08-05T12:45:49.766Z,72.38
2022-08-05T12:46:45.643Z,73.31
2022-08-05T12:48:17.536Z,72.32
2022-08-05T12:48:45.094Z,71.30
2022-08-05T12:50:03.165Z,71.10
2022-08-05T12:50:45.085Z,73.24
2022-08-05T12:52:14.355Z,70.83
2022-08-05T12:52:45.066Z,69.81
2022-08-05T12:53:44.065Z,70.21